sensor_id;sensor_type;location;lat;lon;timestamp;pressure;altitude;pressure_sealevel;temperature;humidity
53647;BME280;39550;52.230;5.194;2022-09-11T00:00:14;101657.09;;;17.60;72.04
53647;BME280;39550;52.230;5.194;2022-09-11T00:02:40;101654.50;;;17.59;71.97
53647;BME280;39550;52.230;5.194;2022-09-11T00:05:06;101654.53;;;17.57;71.72
53647;BME280;39550;52.230;5.194;2022-09-11T00:07:31;101659.72;;;17.59;72.26
53647;BME280;39550;52.230;5.194;2022-09-11T00:09:56;101665.78;;;17.59;72.25
53647;BME280;39550;52.230;5.194;2022-09-11T00:12:22;101658.84;;;17.58;71.81
53647;BME280;39550;52.230;5.194;2022-09-11T00:14:47;101662.34;;;17.57;72.20
53647;BME280;39550;52.230;5.194;2022-09-11T00:17:12;101662.34;;;17.57;72.00
53647;BME280;39550;52.230;5.194;2022-09-11T00:19:39;101655.38;;;17.56;72.25
53647;BME280;39550;52.230;5.194;2022-09-11T00:22:06;101666.69;;;17.55;71.92
53647;BME280;39550;52.230;5.194;2022-09-11T00:24:33;101667.56;;;17.54;72.11
53647;BME280;39550;52.230;5.194;2022-09-11T00:26:58;101677.97;;;17.54;72.14
53647;BME280;39550;52.230;5.194;2022-09-11T00:29:23;101669.31;;;17.52;71.51
53647;BME280;39550;52.230;5.194;2022-09-11T00:31:48;101671.97;;;17.49;72.30
53647;BME280;39550;52.230;5.194;2022-09-11T00:34:14;101669.31;;;17.52;71.85
53647;BME280;39550;52.230;5.194;2022-09-11T00:36:39;101674.53;;;17.52;71.97
53647;BME280;39550;52.230;5.194;2022-09-11T00:39:10;101658.06;;;17.47;72.01
53647;BME280;39550;52.230;5.194;2022-09-11T00:41:38;101671.06;;;17.50;71.78
53647;BME280;39550;52.230;5.194;2022-09-11T00:44:06;101669.34;;;17.49;71.79
53647;BME280;39550;52.230;5.194;2022-09-11T00:46:39;101682.38;;;17.49;71.83
53647;BME280;39550;52.230;5.194;2022-09-11T00:51:46;101673.69;;;17.48;72.09
53647;BME280;39550;52.230;5.194;2022-09-11T00:54:15;101672.81;;;17.48;71.52
53647;BME280;39550;52.230;5.194;2022-09-11T00:56:43;101668.50;;;17.45;71.99
53647;BME280;39550;52.230;5.194;2022-09-11T00:59:10;101680.66;;;17.46;71.83
53647;BME280;39550;52.230;5.194;2022-09-11T01:01:36;101674.56;;;17.44;72.62
53647;BME280;39550;52.230;5.194;2022-09-11T01:04:03;101677.19;;;17.44;71.83
53647;BME280;39550;52.230;5.194;2022-09-11T01:06:29;101681.53;;;17.44;72.37
53647;BME280;39550;52.230;5.194;2022-09-11T01:08:56;101682.41;;;17.43;72.08
53647;BME280;39550;52.230;5.194;2022-09-11T01:14:20;101686.75;;;17.42;72.24
53647;BME280;39550;52.230;5.194;2022-09-11T01:19:45;101684.19;;;17.41;72.07
53647;BME280;39550;52.230;5.194;2022-09-11T01:27:38;101691.13;;;17.37;72.10
53647;BME280;39550;52.230;5.194;2022-09-11T01:30:17;101684.16;;;17.38;72.65
53647;BME280;39550;52.230;5.194;2022-09-11T01:32:55;101695.50;;;17.36;72.73
53647;BME280;39550;52.230;5.194;2022-09-11T01:35:32;101685.09;;;17.30;72.24
53647;BME280;39550;52.230;5.194;2022-09-11T01:38:05;101692.03;;;17.34;72.29
53647;BME280;39550;52.230;5.194;2022-09-11T01:40:43;101690.31;;;17.33;72.03
53647;BME280;39550;52.230;5.194;2022-09-11T01:43:23;101688.56;;;17.32;72.37
53647;BME280;39550;52.230;5.194;2022-09-11T01:45:51;101678.19;;;17.26;72.17
53647;BME280;39550;52.230;5.194;2022-09-11T01:48:21;101686.84;;;17.31;72.28
53647;BME280;39550;52.230;5.194;2022-09-11T01:50:48;101682.50;;;17.29;72.14
53647;BME280;39550;52.230;5.194;2022-09-11T01:53:16;101683.38;;;17.29;71.97
53647;BME280;39550;52.230;5.194;2022-09-11T01:55:49;101676.44;;;17.28;72.40
53647;BME280;39550;52.230;5.194;2022-09-11T01:58:25;101679.91;;;17.27;72.40
53647;BME280;39550;52.230;5.194;2022-09-11T02:00:54;101683.38;;;17.28;72.51
53647;BME280;39550;52.230;5.194;2022-09-11T02:03:33;101685.13;;;17.27;72.55
53647;BME280;39550;52.230;5.194;2022-09-11T02:06:05;101686.88;;;17.25;72.40
53647;BME280;39550;52.230;5.194;2022-09-11T02:08:48;101678.22;;;17.20;72.38
53647;BME280;39550;52.230;5.194;2022-09-11T02:11:15;101686.88;;;17.25;72.18
53647;BME280;39550;52.230;5.194;2022-09-11T02:14:02;101687.75;;;17.24;72.43
53647;BME280;39550;52.230;5.194;2022-09-11T02:16:43;101693.84;;;17.23;72.10
53647;BME280;39550;52.230;5.194;2022-09-11T02:19:32;101699.91;;;17.24;72.33
53647;BME280;39550;52.230;5.194;2022-09-11T02:21:57;101697.31;;;17.19;72.16
53647;BME280;39550;52.230;5.194;2022-09-11T02:24:24;101706.00;;;17.21;71.80
53647;BME280;39550;52.230;5.194;2022-09-11T02:26:57;101686.97;;;17.11;72.01
53647;BME280;39550;52.230;5.194;2022-09-11T02:29:24;101706.88;;;17.20;72.02
53647;BME280;39550;52.230;5.194;2022-09-11T02:31:50;101712.09;;;17.20;72.01
53647;BME280;39550;52.230;5.194;2022-09-11T02:34:16;101711.22;;;17.18;71.85
53647;BME280;39550;52.230;5.194;2022-09-11T02:36:57;101715.56;;;17.19;72.12
53647;BME280;39550;52.230;5.194;2022-09-11T02:43:50;101708.63;;;17.16;71.85
53647;BME280;39550;52.230;5.194;2022-09-11T02:46:19;101703.44;;;17.15;72.14
53647;BME280;39550;52.230;5.194;2022-09-11T02:51:54;101706.91;;;17.12;71.74
53647;BME280;39550;52.230;5.194;2022-09-11T02:54:31;101699.09;;;17.11;72.34
53647;BME280;39550;52.230;5.194;2022-09-11T02:57:12;101710.41;;;17.11;71.80
53647;BME280;39550;52.230;5.194;2022-09-11T02:59:53;101711.28;;;17.10;71.66
53647;BME280;39550;52.230;5.194;2022-09-11T03:02:22;101709.56;;;17.06;71.60
53647;BME280;39550;52.230;5.194;2022-09-11T03:04:47;101717.34;;;17.09;71.91
53647;BME280;39550;52.230;5.194;2022-09-11T03:07:13;101708.69;;;17.09;72.23
53647;BME280;39550;52.230;5.194;2022-09-11T03:09:38;101711.28;;;17.09;72.06
53647;BME280;39550;52.230;5.194;2022-09-11T03:12:03;101709.56;;;17.06;71.96
53647;BME280;39550;52.230;5.194;2022-09-11T03:14:29;101721.69;;;17.06;72.22
53647;BME280;39550;52.230;5.194;2022-09-11T03:16:55;101713.03;;;17.04;71.70
53647;BME280;39550;52.230;5.194;2022-09-11T03:19:21;101716.50;;;17.02;71.70
53647;BME280;39550;52.230;5.194;2022-09-11T03:21:46;101717.41;;;17.03;72.15
53647;BME280;39550;52.230;5.194;2022-09-11T03:24:11;101709.56;;;17.01;71.76
53647;BME280;39550;52.230;5.194;2022-09-11T03:26:37;101713.06;;;17.00;72.00
53647;BME280;39550;52.230;5.194;2022-09-11T03:29:03;101718.28;;;17.00;71.91
53647;BME280;39550;52.230;5.194;2022-09-11T03:31:28;101713.06;;;17.00;71.57
53647;BME280;39550;52.230;5.194;2022-09-11T03:33:53;101720.00;;;17.00;71.65
53647;BME280;39550;52.230;5.194;2022-09-11T03:36:19;101721.75;;;16.99;71.64
53647;BME280;39550;52.230;5.194;2022-09-11T03:38:45;101726.09;;;16.99;71.42
53647;BME280;39550;52.230;5.194;2022-09-11T03:41:10;101730.44;;;16.97;71.46
53647;BME280;39550;52.230;5.194;2022-09-11T03:43:36;101726.97;;;16.96;71.30
53647;BME280;39550;52.230;5.194;2022-09-11T03:46:02;101730.41;;;16.98;71.04
53647;BME280;39550;52.230;5.194;2022-09-11T03:48:27;101723.47;;;16.97;71.59
53647;BME280;39550;52.230;5.194;2022-09-11T03:50:53;101714.81;;;16.95;71.93
53647;BME280;39550;52.230;5.194;2022-09-11T03:53:18;101712.22;;;16.94;71.33
53647;BME280;39550;52.230;5.194;2022-09-11T03:55:44;101714.81;;;16.94;71.45
53647;BME280;39550;52.230;5.194;2022-09-11T03:58:10;101715.66;;;16.96;71.13
53647;BME280;39550;52.230;5.194;2022-09-11T04:00:39;101712.25;;;16.92;71.01
53647;BME280;39550;52.230;5.194;2022-09-11T04:03:05;101722.66;;;16.92;70.93
53647;BME280;39550;52.230;5.194;2022-09-11T04:05:30;101725.25;;;16.92;71.09
53647;BME280;39550;52.230;5.194;2022-09-11T04:07:55;101727.84;;;16.92;70.94
53647;BME280;39550;52.230;5.194;2022-09-11T04:10:21;101726.97;;;16.90;71.11
53647;BME280;39550;52.230;5.194;2022-09-11T04:12:47;101727.81;;;16.88;71.32
53647;BME280;39550;52.230;5.194;2022-09-11T04:15:13;101728.72;;;16.85;71.62
53647;BME280;39550;52.230;5.194;2022-09-11T04:17:38;101730.44;;;16.86;71.12
53647;BME280;39550;52.230;5.194;2022-09-11T04:20:04;101727.00;;;16.84;71.08
53647;BME280;39550;52.230;5.194;2022-09-11T04:22:29;101731.31;;;16.83;70.90
53647;BME280;39550;52.230;5.194;2022-09-11T04:24:54;101729.59;;;16.84;70.83
53647;BME280;39550;52.230;5.194;2022-09-11T04:27:22;101733.91;;;16.83;70.84
53647;BME280;39550;52.230;5.194;2022-09-11T04:29:47;101731.31;;;16.82;70.83
53647;BME280;39550;52.230;5.194;2022-09-11T04:32:12;101732.22;;;16.81;70.81
53647;BME280;39550;52.230;5.194;2022-09-11T04:34:38;101737.41;;;16.81;70.83
53647;BME280;39550;52.230;5.194;2022-09-11T04:37:03;101729.59;;;16.76;71.00
53647;BME280;39550;52.230;5.194;2022-09-11T04:39:28;101732.19;;;16.78;71.10
53647;BME280;39550;52.230;5.194;2022-09-11T04:41:55;101736.53;;;16.79;70.71
53647;BME280;39550;52.230;5.194;2022-09-11T04:44:21;101729.59;;;16.78;71.20
53647;BME280;39550;52.230;5.194;2022-09-11T04:46:48;101733.09;;;16.77;71.17
53647;BME280;39550;52.230;5.194;2022-09-11T04:49:14;101745.22;;;16.76;71.02
53647;BME280;39550;52.230;5.194;2022-09-11T04:51:40;101742.63;;;16.75;70.70
53647;BME280;39550;52.230;5.194;2022-09-11T04:54:06;101746.09;;;16.74;71.19
53647;BME280;39550;52.230;5.194;2022-09-11T04:56:34;101753.91;;;16.72;70.69
53647;BME280;39550;52.230;5.194;2022-09-11T04:59:11;101762.59;;;16.74;70.91
53647;BME280;39550;52.230;5.194;2022-09-11T05:01:38;101760.00;;;16.73;70.99
53647;BME280;39550;52.230;5.194;2022-09-11T05:04:04;101756.50;;;16.72;70.79
53647;BME280;39550;52.230;5.194;2022-09-11T05:06:30;101767.81;;;16.73;70.45
53647;BME280;39550;52.230;5.194;2022-09-11T05:09:00;101763.47;;;16.72;70.25
53647;BME280;39550;52.230;5.194;2022-09-11T05:11:27;101751.31;;;16.71;70.80
53647;BME280;39550;52.230;5.194;2022-09-11T05:13:54;101754.78;;;16.69;70.47
53647;BME280;39550;52.230;5.194;2022-09-11T05:16:23;101753.94;;;16.69;71.03
53647;BME280;39550;52.230;5.194;2022-09-11T05:18:51;101754.78;;;16.69;70.76
53647;BME280;39550;52.230;5.194;2022-09-11T05:21:18;101765.19;;;16.69;70.51
53647;BME280;39550;52.230;5.194;2022-09-11T05:23:46;101777.38;;;16.67;70.16
53647;BME280;39550;52.230;5.194;2022-09-11T05:26:14;101776.50;;;16.68;70.20
53647;BME280;39550;52.230;5.194;2022-09-11T05:28:40;101779.97;;;16.67;70.40
53647;BME280;39550;52.230;5.194;2022-09-11T05:31:14;101776.50;;;16.67;70.13
53647;BME280;39550;52.230;5.194;2022-09-11T05:33:41;101777.38;;;16.66;70.94
53647;BME280;39550;52.230;5.194;2022-09-11T05:36:08;101779.97;;;16.66;70.73
53647;BME280;39550;52.230;5.194;2022-09-11T05:38:34;101791.22;;;16.66;70.57
53647;BME280;39550;52.230;5.194;2022-09-11T05:41:00;101789.50;;;16.65;70.70
53647;BME280;39550;52.230;5.194;2022-09-11T05:43:26;101794.69;;;16.65;70.79
53647;BME280;39550;52.230;5.194;2022-09-11T05:45:55;101794.69;;;16.65;70.12
53647;BME280;39550;52.230;5.194;2022-09-11T05:48:22;101792.97;;;16.61;70.46
53647;BME280;39550;52.230;5.194;2022-09-11T05:50:52;101802.50;;;16.64;70.26
53647;BME280;39550;52.230;5.194;2022-09-11T05:53:17;101800.78;;;16.64;70.32
53647;BME280;39550;52.230;5.194;2022-09-11T05:55:44;101800.78;;;16.61;70.06
53647;BME280;39550;52.230;5.194;2022-09-11T05:58:11;101799.91;;;16.64;70.19
53647;BME280;39550;52.230;5.194;2022-09-11T06:00:36;101807.72;;;16.64;70.19
53647;BME280;39550;52.230;5.194;2022-09-11T06:03:01;101806.88;;;16.62;70.49
53647;BME280;39550;52.230;5.194;2022-09-11T06:05:27;101805.13;;;16.62;70.24
53647;BME280;39550;52.230;5.194;2022-09-11T06:07:52;101814.69;;;16.62;70.08
53647;BME280;39550;52.230;5.194;2022-09-11T06:10:18;101806.88;;;16.60;69.96
53647;BME280;39550;52.230;5.194;2022-09-11T06:12:43;101812.09;;;16.60;70.49
53647;BME280;39550;52.230;5.194;2022-09-11T06:15:09;101814.66;;;16.63;69.78
53647;BME280;39550;52.230;5.194;2022-09-11T06:17:34;101817.28;;;16.63;70.04
53647;BME280;39550;52.230;5.194;2022-09-11T06:19:59;101813.81;;;16.64;69.69
53647;BME280;39550;52.230;5.194;2022-09-11T06:22:25;101825.94;;;16.65;70.34
53647;BME280;39550;52.230;5.194;2022-09-11T06:24:53;101821.63;;;16.64;70.34
53647;BME280;39550;52.230;5.194;2022-09-11T06:27:19;101826.81;;;16.64;69.97
53647;BME280;39550;52.230;5.194;2022-09-11T06:29:44;101832.88;;;16.63;70.37
53647;BME280;39550;52.230;5.194;2022-09-11T06:32:10;101824.22;;;16.64;70.63
53647;BME280;39550;52.230;5.194;2022-09-11T06:34:35;101829.44;;;16.64;70.43
53647;BME280;39550;52.230;5.194;2022-09-11T06:37:02;101822.47;;;16.65;70.47
53647;BME280;39550;52.230;5.194;2022-09-11T06:39:27;101824.22;;;16.64;70.29
53647;BME280;39550;52.230;5.194;2022-09-11T06:41:52;101825.06;;;16.65;70.28
53647;BME280;39550;52.230;5.194;2022-09-11T06:44:18;101825.06;;;16.65;69.65
53647;BME280;39550;52.230;5.194;2022-09-11T06:46:44;101819.00;;;16.66;69.89
53647;BME280;39550;52.230;5.194;2022-09-11T06:49:10;101819.88;;;16.66;69.67
53647;BME280;39550;52.230;5.194;2022-09-11T06:51:36;101823.34;;;16.67;70.29
53647;BME280;39550;52.230;5.194;2022-09-11T06:54:03;101821.59;;;16.67;70.36
53647;BME280;39550;52.230;5.194;2022-09-11T06:56:29;101825.06;;;16.68;69.99
53647;BME280;39550;52.230;5.194;2022-09-11T06:58:57;101826.81;;;16.69;70.08
53647;BME280;39550;52.230;5.194;2022-09-11T07:01:23;101831.16;;;16.68;69.61
53647;BME280;39550;52.230;5.194;2022-09-11T07:03:51;101831.16;;;16.68;70.12
53647;BME280;39550;52.230;5.194;2022-09-11T07:06:25;101826.81;;;16.69;70.22
53647;BME280;39550;52.230;5.194;2022-09-11T07:08:55;101830.25;;;16.69;70.11
53647;BME280;39550;52.230;5.194;2022-09-11T07:11:24;101832.88;;;16.69;70.11
53647;BME280;39550;52.230;5.194;2022-09-11T07:13:49;101832.00;;;16.72;70.38
53647;BME280;39550;52.230;5.194;2022-09-11T07:16:14;101835.47;;;16.74;69.99
53647;BME280;39550;52.230;5.194;2022-09-11T07:18:43;101835.47;;;16.73;69.72
53647;BME280;39550;52.230;5.194;2022-09-11T07:21:14;101836.34;;;16.72;69.99
53647;BME280;39550;52.230;5.194;2022-09-11T07:23:41;101844.16;;;16.75;70.24
53647;BME280;39550;52.230;5.194;2022-09-11T07:26:10;101846.75;;;16.75;70.37
53647;BME280;39550;52.230;5.194;2022-09-11T07:28:37;101849.34;;;16.76;69.78
53647;BME280;39550;52.230;5.194;2022-09-11T07:31:08;101838.06;;;16.76;70.58
53647;BME280;39550;52.230;5.194;2022-09-11T07:33:38;101845.03;;;16.77;70.27
53647;BME280;39550;52.230;5.194;2022-09-11T07:36:24;101842.41;;;16.83;70.02
53647;BME280;39550;52.230;5.194;2022-09-11T07:38:50;101856.28;;;16.85;70.11
53647;BME280;39550;52.230;5.194;2022-09-11T07:41:18;101854.56;;;16.82;70.42
53647;BME280;39550;52.230;5.194;2022-09-11T07:43:44;101843.28;;;16.79;70.40
53647;BME280;39550;52.230;5.194;2022-09-11T07:46:10;101846.75;;;16.81;70.74
53647;BME280;39550;52.230;5.194;2022-09-11T07:48:36;101849.34;;;16.76;71.04
53647;BME280;39550;52.230;5.194;2022-09-11T07:51:05;101843.28;;;16.73;71.04
53647;BME280;39550;52.230;5.194;2022-09-11T07:53:36;101853.72;;;16.73;70.65
53647;BME280;39550;52.230;5.194;2022-09-11T07:56:04;101848.50;;;16.73;71.18
53647;BME280;39550;52.230;5.194;2022-09-11T07:58:37;101849.34;;;16.73;70.37
53647;BME280;39550;52.230;5.194;2022-09-11T08:01:16;101851.97;;;16.72;70.92
53647;BME280;39550;52.230;5.194;2022-09-11T08:03:42;101851.94;;;16.65;71.24
53647;BME280;39550;52.230;5.194;2022-09-11T08:06:13;101851.97;;;16.68;70.85
53647;BME280;39550;52.230;5.194;2022-09-11T08:08:40;101864.09;;;16.69;70.67
53647;BME280;39550;52.230;5.194;2022-09-11T08:11:16;101858.91;;;16.76;70.83
53647;BME280;39550;52.230;5.194;2022-09-11T08:13:45;101861.50;;;16.76;70.91
53647;BME280;39550;52.230;5.194;2022-09-11T08:16:11;101862.34;;;16.79;70.13
53647;BME280;39550;52.230;5.194;2022-09-11T08:18:36;101857.16;;;16.78;70.29
53647;BME280;39550;52.230;5.194;2022-09-11T08:21:04;101861.50;;;16.76;70.33
53647;BME280;39550;52.230;5.194;2022-09-11T08:23:30;101855.44;;;16.77;70.61
53647;BME280;39550;52.230;5.194;2022-09-11T08:26:05;101867.56;;;16.78;70.70
53647;BME280;39550;52.230;5.194;2022-09-11T08:28:32;101863.22;;;16.80;70.29
53647;BME280;39550;52.230;5.194;2022-09-11T08:30:58;101866.69;;;16.82;70.50
53647;BME280;39550;52.230;5.194;2022-09-11T08:33:23;101868.44;;;16.81;69.99
53647;BME280;39550;52.230;5.194;2022-09-11T08:35:49;101869.28;;;16.82;70.66
53647;BME280;39550;52.230;5.194;2022-09-11T08:38:15;101874.50;;;16.88;70.87
53647;BME280;39550;52.230;5.194;2022-09-11T08:40:40;101871.91;;;16.93;71.54
53647;BME280;39550;52.230;5.194;2022-09-11T08:43:13;101872.75;;;17.02;70.70
53647;BME280;39550;52.230;5.194;2022-09-11T08:45:43;101879.69;;;17.07;71.28
53647;BME280;39550;52.230;5.194;2022-09-11T08:48:09;101879.66;;;17.17;70.37
53647;BME280;39550;52.230;5.194;2022-09-11T08:50:40;101889.16;;;17.28;69.90
53647;BME280;39550;52.230;5.194;2022-09-11T08:53:12;101880.50;;;17.27;69.28
53647;BME280;39550;52.230;5.194;2022-09-11T08:56:12;101879.63;;;17.31;69.12
53647;BME280;39550;52.230;5.194;2022-09-11T09:01:52;101884.75;;;17.47;68.72
53647;BME280;39550;52.230;5.194;2022-09-11T09:10:35;101878.66;;;17.57;68.50
53647;BME280;39550;52.230;5.194;2022-09-11T09:18:17;101871.69;;;17.58;69.07
53647;BME280;39550;52.230;5.194;2022-09-11T09:21:02;101879.50;;;17.59;68.95
53647;BME280;39550;52.230;5.194;2022-09-11T09:23:35;101882.09;;;17.62;70.07
53647;BME280;39550;52.230;5.194;2022-09-11T09:26:02;101877.75;;;17.61;71.05
53647;BME280;39550;52.230;5.194;2022-09-11T09:28:34;101886.47;;;17.54;70.80
53647;BME280;39550;52.230;5.194;2022-09-11T09:31:06;101891.72;;;17.48;70.80
53647;BME280;39550;52.230;5.194;2022-09-11T09:33:42;101892.59;;;17.42;71.49
53647;BME280;39550;52.230;5.194;2022-09-11T09:36:20;101897.81;;;17.36;71.63
53647;BME280;39550;52.230;5.194;2022-09-11T09:38:50;101897.81;;;17.36;71.42
53647;BME280;39550;52.230;5.194;2022-09-11T09:48:53;101895.22;;;17.38;70.81
53647;BME280;39550;52.230;5.194;2022-09-11T09:51:20;101889.16;;;17.37;71.97
53647;BME280;39550;52.230;5.194;2022-09-11T09:53:50;101888.25;;;17.43;71.21
53647;BME280;39550;52.230;5.194;2022-09-11T09:56:18;101889.09;;;17.57;70.43
53647;BME280;39550;52.230;5.194;2022-09-11T10:06:48;101879.34;;;17.87;70.01
53647;BME280;39550;52.230;5.194;2022-09-11T10:09:32;101884.56;;;17.96;70.14
53647;BME280;39550;52.230;5.194;2022-09-11T10:12:02;101881.88;;;18.02;69.77
53647;BME280;39550;52.230;5.194;2022-09-11T10:14:33;101884.50;;;18.06;69.76
53647;BME280;39550;52.230;5.194;2022-09-11T10:17:02;101875.78;;;18.10;69.92
53647;BME280;39550;52.230;5.194;2022-09-11T10:19:39;101887.00;;;18.16;69.78
53647;BME280;39550;52.230;5.194;2022-09-11T10:22:28;101893.13;;;18.14;69.99
53647;BME280;39550;52.230;5.194;2022-09-11T10:25:00;101891.44;;;18.07;69.81
53647;BME280;39550;52.230;5.194;2022-09-11T10:27:27;101887.16;;;17.96;69.73
53647;BME280;39550;52.230;5.194;2022-09-11T10:29:55;101889.78;;;17.87;69.75
53647;BME280;39550;52.230;5.194;2022-09-11T10:32:21;101894.16;;;17.85;70.11
53647;BME280;39550;52.230;5.194;2022-09-11T10:34:49;101885.47;;;17.80;70.64
53647;BME280;39550;52.230;5.194;2022-09-11T10:37:27;101895.03;;;17.81;70.17
53647;BME280;39550;52.230;5.194;2022-09-11T10:40:01;101895.00;;;17.84;70.22
53647;BME280;39550;52.230;5.194;2022-09-11T10:42:29;101888.06;;;17.83;70.26
53647;BME280;39550;52.230;5.194;2022-09-11T10:45:11;101885.44;;;17.84;69.47
53647;BME280;39550;52.230;5.194;2022-09-11T10:47:40;101889.75;;;17.88;69.69
53647;BME280;39550;52.230;5.194;2022-09-11T10:55:20;101893.25;;;17.89;69.72
53647;BME280;39550;52.230;5.194;2022-09-11T10:57:53;101884.59;;;17.84;69.00
53647;BME280;39550;52.230;5.194;2022-09-11T11:00:25;101886.31;;;17.88;69.15
53647;BME280;39550;52.230;5.194;2022-09-11T11:05:19;101887.19;;;17.92;69.62
53647;BME280;39550;52.230;5.194;2022-09-11T11:10:26;101888.91;;;17.97;69.04
53647;BME280;39550;52.230;5.194;2022-09-11T11:16:02;101891.53;;;17.91;69.49
53647;BME280;39550;52.230;5.194;2022-09-11T11:21:21;101890.66;;;17.87;68.87
53647;BME280;39550;52.230;5.194;2022-09-11T11:24:31;101888.06;;;17.83;68.79
53647;BME280;39550;52.230;5.194;2022-09-11T11:29:35;101888.91;;;17.94;69.45
53647;BME280;39550;52.230;5.194;2022-09-11T11:35:11;101887.94;;;18.08;68.57
53647;BME280;39550;52.230;5.194;2022-09-11T11:37:44;101891.34;;;18.22;68.34
53647;BME280;39550;52.230;5.194;2022-09-11T11:45:26;101878.09;;;18.45;67.10
53647;BME280;39550;52.230;5.194;2022-09-11T11:47:58;101878.94;;;18.49;66.94
53647;BME280;39550;52.230;5.194;2022-09-11T11:50:43;101877.28;;;18.42;67.06
53647;BME280;39550;52.230;5.194;2022-09-11T11:53:34;101870.44;;;18.25;67.58
53647;BME280;39550;52.230;5.194;2022-09-11T11:56:34;101869.53;;;18.31;67.18
53647;BME280;39550;52.230;5.194;2022-09-11T11:59:21;101876.38;;;18.43;67.14
53647;BME280;39550;52.230;5.194;2022-09-11T12:01:59;101870.31;;;18.41;67.01
53647;BME280;39550;52.230;5.194;2022-09-11T12:04:49;101870.34;;;18.37;67.08
53647;BME280;39550;52.230;5.194;2022-09-11T12:07:24;101869.50;;;18.34;66.96
53647;BME280;39550;52.230;5.194;2022-09-11T12:09:52;101862.56;;;18.30;67.44
53647;BME280;39550;52.230;5.194;2022-09-11T12:12:20;101870.44;;;18.25;67.69
53647;BME280;39550;52.230;5.194;2022-09-11T12:14:48;101853.03;;;18.27;67.37
53647;BME280;39550;52.230;5.194;2022-09-11T12:17:23;101860.81;;;18.33;66.51
53647;BME280;39550;52.230;5.194;2022-09-11T12:22:35;101856.22;;;18.60;65.55
53647;BME280;39550;52.230;5.194;2022-09-11T12:25:04;101863.06;;;18.74;64.78
53647;BME280;39550;52.230;5.194;2022-09-11T12:30:54;101857.66;;;18.92;64.26
53647;BME280;39550;52.230;5.194;2022-09-11T12:38:54;101845.66;;;19.50;62.50
53647;BME280;39550;52.230;5.194;2022-09-11T12:41:30;101848.06;;;19.64;61.82
53647;BME280;39550;52.230;5.194;2022-09-11T12:43:56;101847.97;;;19.73;61.35
53647;BME280;39550;52.230;5.194;2022-09-11T12:48:53;101833.16;;;19.72;60.96
53647;BME280;39550;52.230;5.194;2022-09-11T12:51:33;101832.38;;;19.64;61.20
53647;BME280;39550;52.230;5.194;2022-09-11T12:54:02;101835.16;;;19.55;61.68
53647;BME280;39550;52.230;5.194;2022-09-11T12:56:32;101837.72;;;19.58;62.13
53647;BME280;39550;52.230;5.194;2022-09-11T12:59:06;101836.09;;;19.51;61.46
53647;BME280;39550;52.230;5.194;2022-09-11T13:01:41;101830.03;;;19.46;61.71
53647;BME280;39550;52.230;5.194;2022-09-11T13:06:41;101828.59;;;19.21;62.38
53647;BME280;39550;52.230;5.194;2022-09-11T13:09:20;101830.41;;;19.15;62.59
53647;BME280;39550;52.230;5.194;2022-09-11T13:11:49;101829.66;;;19.08;62.26
53647;BME280;39550;52.230;5.194;2022-09-11T13:16:53;101824.41;;;19.10;62.45
53647;BME280;39550;52.230;5.194;2022-09-11T13:19:19;101828.81;;;19.04;62.70
53647;BME280;39550;52.230;5.194;2022-09-11T13:21:47;101822.69;;;19.05;63.30
53647;BME280;39550;52.230;5.194;2022-09-11T13:26:53;101815.66;;;19.76;61.32
53647;BME280;39550;52.230;5.194;2022-09-11T13:29:25;101803.28;;;20.44;59.05
53647;BME280;39550;52.230;5.194;2022-09-11T13:31:52;101804.25;;;20.85;57.99
53647;BME280;39550;52.230;5.194;2022-09-11T13:34:20;101800.75;;;20.86;58.06
53647;BME280;39550;52.230;5.194;2022-09-11T13:36:48;101793.66;;;21.32;56.42
53647;BME280;39550;52.230;5.194;2022-09-11T13:39:14;101792.44;;;21.48;56.68
53647;BME280;39550;52.230;5.194;2022-09-11T13:41:42;101799.25;;;21.57;55.53
53647;BME280;39550;52.230;5.194;2022-09-11T13:44:33;101789.59;;;21.59;55.19
53647;BME280;39550;52.230;5.194;2022-09-11T13:47:03;101785.25;;;21.58;55.54
53647;BME280;39550;52.230;5.194;2022-09-11T13:49:33;101787.56;;;21.72;54.85
53647;BME280;39550;52.230;5.194;2022-09-11T13:52:02;101785.47;;;21.85;54.37
53647;BME280;39550;52.230;5.194;2022-09-11T13:54:30;101783.56;;;21.91;54.14
53647;BME280;39550;52.230;5.194;2022-09-11T14:02:29;101784.16;;;21.67;54.59
53647;BME280;39550;52.230;5.194;2022-09-11T14:05:24;101777.25;;;22.00;53.91
53647;BME280;39550;52.230;5.194;2022-09-11T14:13:30;101779.34;;;20.14;58.79
53647;BME280;39550;52.230;5.194;2022-09-11T14:16:04;101771.81;;;19.95;58.69
53647;BME280;39550;52.230;5.194;2022-09-11T14:18:52;101771.97;;;19.86;59.56
53647;BME280;39550;52.230;5.194;2022-09-11T14:21:23;101769.44;;;19.77;60.32
53647;BME280;39550;52.230;5.194;2022-09-11T14:23:54;101766.13;;;19.65;60.16
53647;BME280;39550;52.230;5.194;2022-09-11T14:26:38;101772.28;;;19.63;60.16
53647;BME280;39550;52.230;5.194;2022-09-11T14:29:05;101775.78;;;19.60;60.08
53647;BME280;39550;52.230;5.194;2022-09-11T14:31:47;101778.41;;;19.60;60.26
53647;BME280;39550;52.230;5.194;2022-09-11T14:34:14;101774.97;;;19.58;60.44
53647;BME280;39550;52.230;5.194;2022-09-11T14:39:24;101762.84;;;19.52;60.73
53647;BME280;39550;52.230;5.194;2022-09-11T14:41:51;101765.41;;;19.55;60.55
53647;BME280;39550;52.230;5.194;2022-09-11T14:44:17;101763.66;;;19.56;60.33
53647;BME280;39550;52.230;5.194;2022-09-11T14:46:42;101767.19;;;19.53;60.66
53647;BME280;39550;52.230;5.194;2022-09-11T14:49:08;101774.19;;;19.51;61.32
53647;BME280;39550;52.230;5.194;2022-09-11T14:51:37;101763.78;;;19.48;61.15
53647;BME280;39550;52.230;5.194;2022-09-11T14:54:05;101775.13;;;19.47;61.36
53647;BME280;39550;52.230;5.194;2022-09-11T14:56:31;101763.81;;;19.47;61.27